King, California
Current Conditions -  °F | °C
As of 7:53 PM on Friday 31 Oct 2014 (Local Time) from KSNA Reporting Station
Overcast Overcast  
Wind Chill: 69°   Ceiling: 2500
Heat Index: 69°   Visibility: 10mi
Dew Point: 60°   Wind: 0mph
Humidity: 73%   Direction: NA
Pressure: 29.85"   Gusts: NA
Location:  33.7663°N, 117.878°W
Report Text: KSNA 010253Z 00000KT 10SM SCT017 BKN025 OVC060 21/16 A2985 RMK AO2 RAB03E18 SLP107 P0000 60000 T02060156 58002
Loading
Personal Weather Stations






























Interactive Weather Map
Tropical Storm Tracking
New forecast layout! Learn more

10-Day Weather Forecast

Advertisements
Track Severe Weather on mobile